Preview of NWS' New Version of Forecast
This preview is not operational and should not be used for support decisions.

Terminal Aerodrome Forecast (TAF)

Issued by National Weather Service (NWS)

                            
000
FTUS42 KCAE 191120
TAFOGB
TAF
KOGB 191120Z 1912/2012 22006KT P6SM OVC003
      TEMPO 1914/1915 SCT006 BKN020
     FM191500 21006KT P6SM SCT040
     FM191800 18006KT P6SM VCTS SCT050CB SCT250
     FM200200 18003KT P6SM BKN150=